sensor_id;sensor_type;location;lat;lon;timestamp;temperature;humidity
29777;DHT22;16677;52.224;7.484;2023-08-21T00:00:03;18.00;1.00
29777;DHT22;16677;52.224;7.484;2023-08-21T00:02:31;18.10;1.00
29777;DHT22;16677;52.224;7.484;2023-08-21T00:05:01;18.00;98.10
29777;DHT22;16677;52.224;7.484;2023-08-21T00:07:31;17.90;1.00
29777;DHT22;16677;52.224;7.484;2023-08-21T00:09:58;17.90;99.90
29777;DHT22;16677;52.224;7.484;2023-08-21T00:12:29;17.90;1.00
29777;DHT22;16677;52.224;7.484;2023-08-21T00:14:57;17.90;99.90
29777;DHT22;16677;52.224;7.484;2023-08-21T00:17:24;18.00;99.90
29777;DHT22;16677;52.224;7.484;2023-08-21T00:19:54;18.00;99.90
29777;DHT22;16677;52.224;7.484;2023-08-21T00:22:21;17.90;2.60
29777;DHT22;16677;52.224;7.484;2023-08-21T00:24:54;17.90;1.00
29777;DHT22;16677;52.224;7.484;2023-08-21T00:27:24;17.80;1.00
29777;DHT22;16677;52.224;7.484;2023-08-21T00:29:51;17.80;1.00
29777;DHT22;16677;52.224;7.484;2023-08-21T00:32:18;17.40;1.00
29777;DHT22;16677;52.224;7.484;2023-08-21T00:34:46;17.40;1.00
29777;DHT22;16677;52.224;7.484;2023-08-21T00:37:18;17.30;99.90
29777;DHT22;16677;52.224;7.484;2023-08-21T00:39:46;17.30;99.90
29777;DHT22;16677;52.224;7.484;2023-08-21T00:42:14;17.40;99.90
29777;DHT22;16677;52.224;7.484;2023-08-21T00:44:41;17.40;1.00
29777;DHT22;16677;52.224;7.484;2023-08-21T00:47:08;17.20;1.00
29777;DHT22;16677;52.224;7.484;2023-08-21T00:49:35;17.10;99.90
29777;DHT22;16677;52.224;7.484;2023-08-21T00:52:11;17.20;99.90
29777;DHT22;16677;52.224;7.484;2023-08-21T00:54:43;17.30;99.90
29777;DHT22;16677;52.224;7.484;2023-08-21T00:57:14;17.30;1.00
29777;DHT22;16677;52.224;7.484;2023-08-21T00:59:41;17.10;1.00
29777;DHT22;16677;52.224;7.484;2023-08-21T01:02:11;17.00;1.00
29777;DHT22;16677;52.224;7.484;2023-08-21T01:04:39;16.90;99.90
29777;DHT22;16677;52.224;7.484;2023-08-21T01:07:06;16.90;99.90
29777;DHT22;16677;52.224;7.484;2023-08-21T01:10:16;17.00;99.90
29777;DHT22;16677;52.224;7.484;2023-08-21T01:15:57;17.20;99.90
29777;DHT22;16677;52.224;7.484;2023-08-21T01:18:28;17.10;1.00
29777;DHT22;16677;52.224;7.484;2023-08-21T01:20:55;17.00;99.90
29777;DHT22;16677;52.224;7.484;2023-08-21T01:23:37;16.90;1.00
29777;DHT22;16677;52.224;7.484;2023-08-21T01:26:05;16.90;1.00
29777;DHT22;16677;52.224;7.484;2023-08-21T01:28:33;16.80;1.00
29777;DHT22;16677;52.224;7.484;2023-08-21T01:31:24;16.80;1.00
29777;DHT22;16677;52.224;7.484;2023-08-21T01:33:56;16.80;1.00
29777;DHT22;16677;52.224;7.484;2023-08-21T01:36:26;16.80;99.90
29777;DHT22;16677;52.224;7.484;2023-08-21T01:38:55;17.00;5.40
29777;DHT22;16677;52.224;7.484;2023-08-21T01:41:28;17.00;1.00
29777;DHT22;16677;52.224;7.484;2023-08-21T01:44:00;17.00;1.00
29777;DHT22;16677;52.224;7.484;2023-08-21T01:46:41;16.90;1.00
29777;DHT22;16677;52.224;7.484;2023-08-21T01:49:14;17.10;99.90
29777;DHT22;16677;52.224;7.484;2023-08-21T01:51:42;17.10;1.00
29777;DHT22;16677;52.224;7.484;2023-08-21T01:54:33;17.20;99.90
29777;DHT22;16677;52.224;7.484;2023-08-21T01:57:21;17.30;99.90
29777;DHT22;16677;52.224;7.484;2023-08-21T02:03:49;17.30;99.90
29777;DHT22;16677;52.224;7.484;2023-08-21T02:06:33;17.30;1.00
29777;DHT22;16677;52.224;7.484;2023-08-21T02:12:14;17.00;99.90
29777;DHT22;16677;52.224;7.484;2023-08-21T02:14:49;16.80;1.00
29777;DHT22;16677;52.224;7.484;2023-08-21T02:17:29;16.70;1.00
29777;DHT22;16677;52.224;7.484;2023-08-21T02:20:00;16.70;99.90
29777;DHT22;16677;52.224;7.484;2023-08-21T02:22:43;16.50;1.00
29777;DHT22;16677;52.224;7.484;2023-08-21T02:25:57;16.40;1.00
29777;DHT22;16677;52.224;7.484;2023-08-21T02:28:50;16.50;1.00
29777;DHT22;16677;52.224;7.484;2023-08-21T02:31:32;16.40;8.90
29777;DHT22;16677;52.224;7.484;2023-08-21T02:34:31;16.50;1.00
29777;DHT22;16677;52.224;7.484;2023-08-21T02:37:07;16.60;99.90
29777;DHT22;16677;52.224;7.484;2023-08-21T02:39:44;16.60;99.90
29777;DHT22;16677;52.224;7.484;2023-08-21T02:42:56;16.90;52.80
29777;DHT22;16677;52.224;7.484;2023-08-21T02:46:04;17.00;99.90
29777;DHT22;16677;52.224;7.484;2023-08-21T02:48:35;17.10;1.00
29777;DHT22;16677;52.224;7.484;2023-08-21T02:51:32;17.10;99.90
29777;DHT22;16677;52.224;7.484;2023-08-21T02:54:34;17.10;1.00
29777;DHT22;16677;52.224;7.484;2023-08-21T02:57:37;17.00;1.00
29777;DHT22;16677;52.224;7.484;2023-08-21T03:00:15;16.90;99.90
29777;DHT22;16677;52.224;7.484;2023-08-21T03:02:53;16.90;99.90
29777;DHT22;16677;52.224;7.484;2023-08-21T03:05:22;16.80;1.00
29777;DHT22;16677;52.224;7.484;2023-08-21T03:07:51;16.70;99.90
29777;DHT22;16677;52.224;7.484;2023-08-21T03:10:19;16.70;1.00
29777;DHT22;16677;52.224;7.484;2023-08-21T03:13:00;16.70;99.90
29777;DHT22;16677;52.224;7.484;2023-08-21T03:15:27;16.50;99.90
29777;DHT22;16677;52.224;7.484;2023-08-21T03:17:58;16.50;1.00
29777;DHT22;16677;52.224;7.484;2023-08-21T03:20:28;16.50;99.90
29777;DHT22;16677;52.224;7.484;2023-08-21T03:22:56;16.50;99.90
29777;DHT22;16677;52.224;7.484;2023-08-21T03:25:23;16.80;1.00
29777;DHT22;16677;52.224;7.484;2023-08-21T03:27:50;16.90;55.30
29777;DHT22;16677;52.224;7.484;2023-08-21T03:30:17;16.90;1.00
29777;DHT22;16677;52.224;7.484;2023-08-21T03:32:47;16.90;1.00
29777;DHT22;16677;52.224;7.484;2023-08-21T03:35:14;16.90;1.00
29777;DHT22;16677;52.224;7.484;2023-08-21T03:37:41;16.90;99.90
29777;DHT22;16677;52.224;7.484;2023-08-21T03:40:09;16.90;1.00
29777;DHT22;16677;52.224;7.484;2023-08-21T03:42:36;16.80;1.00
29777;DHT22;16677;52.224;7.484;2023-08-21T03:45:04;16.80;1.00
29777;DHT22;16677;52.224;7.484;2023-08-21T03:47:32;16.80;29.80
29777;DHT22;16677;52.224;7.484;2023-08-21T03:50:02;16.80;99.90
29777;DHT22;16677;52.224;7.484;2023-08-21T03:52:30;17.00;99.90
29777;DHT22;16677;52.224;7.484;2023-08-21T03:54:57;17.20;94.20
29777;DHT22;16677;52.224;7.484;2023-08-21T03:57:24;17.10;99.90
29777;DHT22;16677;52.224;7.484;2023-08-21T03:59:51;17.10;99.90
29777;DHT22;16677;52.224;7.484;2023-08-21T04:02:21;16.90;1.00
29777;DHT22;16677;52.224;7.484;2023-08-21T04:04:52;16.90;99.90
29777;DHT22;16677;52.224;7.484;2023-08-21T04:07:19;16.90;11.10
29777;DHT22;16677;52.224;7.484;2023-08-21T04:09:48;16.90;1.00
29777;DHT22;16677;52.224;7.484;2023-08-21T04:12:16;16.90;99.90
29777;DHT22;16677;52.224;7.484;2023-08-21T04:14:43;16.90;99.90
29777;DHT22;16677;52.224;7.484;2023-08-21T04:17:23;16.90;99.90
29777;DHT22;16677;52.224;7.484;2023-08-21T04:19:51;17.00;99.90
29777;DHT22;16677;52.224;7.484;2023-08-21T04:22:21;17.00;99.90
29777;DHT22;16677;52.224;7.484;2023-08-21T04:24:52;17.00;1.00
29777;DHT22;16677;52.224;7.484;2023-08-21T04:27:19;17.10;30.00
29777;DHT22;16677;52.224;7.484;2023-08-21T04:29:46;17.10;1.00
29777;DHT22;16677;52.224;7.484;2023-08-21T04:32:16;17.30;1.00
29777;DHT22;16677;52.224;7.484;2023-08-21T04:34:46;17.40;1.00
29777;DHT22;16677;52.224;7.484;2023-08-21T04:37:16;17.50;99.90
29777;DHT22;16677;52.224;7.484;2023-08-21T04:39:43;17.40;99.90
29777;DHT22;16677;52.224;7.484;2023-08-21T04:42:13;17.50;99.90
29777;DHT22;16677;52.224;7.484;2023-08-21T04:44:40;17.50;99.90
29777;DHT22;16677;52.224;7.484;2023-08-21T04:47:37;17.50;1.00
29777;DHT22;16677;52.224;7.484;2023-08-21T04:50:05;17.40;1.00
29777;DHT22;16677;52.224;7.484;2023-08-21T04:52:32;17.30;1.00
29777;DHT22;16677;52.224;7.484;2023-08-21T04:54:59;17.30;1.00
29777;DHT22;16677;52.224;7.484;2023-08-21T04:57:26;17.20;1.00
29777;DHT22;16677;52.224;7.484;2023-08-21T04:59:53;17.20;99.90
29777;DHT22;16677;52.224;7.484;2023-08-21T05:02:21;17.20;1.00
29777;DHT22;16677;52.224;7.484;2023-08-21T05:04:48;17.20;1.00
29777;DHT22;16677;52.224;7.484;2023-08-21T05:07:18;17.20;1.00
29777;DHT22;16677;52.224;7.484;2023-08-21T05:09:48;17.10;1.00
29777;DHT22;16677;52.224;7.484;2023-08-21T05:12:18;17.20;1.00
29777;DHT22;16677;52.224;7.484;2023-08-21T05:14:46;17.20;1.00
29777;DHT22;16677;52.224;7.484;2023-08-21T05:17:13;17.40;99.90
29777;DHT22;16677;52.224;7.484;2023-08-21T05:19:40;17.50;99.90
29777;DHT22;16677;52.224;7.484;2023-08-21T05:22:07;17.50;1.00
29777;DHT22;16677;52.224;7.484;2023-08-21T05:24:34;17.60;1.00
29777;DHT22;16677;52.224;7.484;2023-08-21T05:27:02;17.60;1.00
29777;DHT22;16677;52.224;7.484;2023-08-21T05:29:35;17.60;1.00
29777;DHT22;16677;52.224;7.484;2023-08-21T05:32:02;17.60;99.90
29777;DHT22;16677;52.224;7.484;2023-08-21T05:34:32;17.50;1.00
29777;DHT22;16677;52.224;7.484;2023-08-21T05:37:00;17.70;99.90
29777;DHT22;16677;52.224;7.484;2023-08-21T05:39:27;17.70;99.90
29777;DHT22;16677;52.224;7.484;2023-08-21T05:41:54;17.80;99.90
29777;DHT22;16677;52.224;7.484;2023-08-21T05:44:24;17.90;99.90
29777;DHT22;16677;52.224;7.484;2023-08-21T05:46:54;18.20;16.20
29777;DHT22;16677;52.224;7.484;2023-08-21T05:49:22;18.30;1.00
29777;DHT22;16677;52.224;7.484;2023-08-21T05:51:49;18.30;1.00
29777;DHT22;16677;52.224;7.484;2023-08-21T05:54:16;18.30;1.00
29777;DHT22;16677;52.224;7.484;2023-08-21T05:56:44;18.20;1.00
29777;DHT22;16677;52.224;7.484;2023-08-21T05:59:11;18.00;1.00
29777;DHT22;16677;52.224;7.484;2023-08-21T06:01:38;17.90;93.50
29777;DHT22;16677;52.224;7.484;2023-08-21T06:04:07;18.00;99.90
29777;DHT22;16677;52.224;7.484;2023-08-21T06:06:37;18.30;1.00
29777;DHT22;16677;52.224;7.484;2023-08-21T06:09:04;18.50;1.00
29777;DHT22;16677;52.224;7.484;2023-08-21T06:11:32;19.00;99.90
29777;DHT22;16677;52.224;7.484;2023-08-21T06:13:59;18.90;99.00
29777;DHT22;16677;52.224;7.484;2023-08-21T06:16:29;19.20;1.00
29777;DHT22;16677;52.224;7.484;2023-08-21T06:19:00;19.70;1.00
29777;DHT22;16677;52.224;7.484;2023-08-21T06:21:27;19.90;99.90
29777;DHT22;16677;52.224;7.484;2023-08-21T06:23:54;20.00;99.90
29777;DHT22;16677;52.224;7.484;2023-08-21T06:26:21;19.80;99.90
29777;DHT22;16677;52.224;7.484;2023-08-21T06:28:49;19.70;99.90
29777;DHT22;16677;52.224;7.484;2023-08-21T06:31:16;19.80;99.90
29777;DHT22;16677;52.224;7.484;2023-08-21T06:33:44;19.80;99.90
29777;DHT22;16677;52.224;7.484;2023-08-21T06:36:11;20.00;99.90
29777;DHT22;16677;52.224;7.484;2023-08-21T06:38:39;20.30;99.90
29777;DHT22;16677;52.224;7.484;2023-08-21T06:41:06;20.20;99.90
29777;DHT22;16677;52.224;7.484;2023-08-21T06:43:38;20.30;99.90
29777;DHT22;16677;52.224;7.484;2023-08-21T06:46:11;20.30;99.90
29777;DHT22;16677;52.224;7.484;2023-08-21T06:48:42;20.40;1.00
29777;DHT22;16677;52.224;7.484;2023-08-21T06:51:10;20.30;60.90
29777;DHT22;16677;52.224;7.484;2023-08-21T06:53:42;20.20;1.00
29777;DHT22;16677;52.224;7.484;2023-08-21T06:56:10;20.40;99.90
29777;DHT22;16677;52.224;7.484;2023-08-21T06:58:40;20.70;1.00
29777;DHT22;16677;52.224;7.484;2023-08-21T07:01:07;20.70;99.90
29777;DHT22;16677;52.224;7.484;2023-08-21T07:03:34;20.80;1.00
29777;DHT22;16677;52.224;7.484;2023-08-21T07:06:04;21.10;99.90
29777;DHT22;16677;52.224;7.484;2023-08-21T07:08:32;21.10;99.90
29777;DHT22;16677;52.224;7.484;2023-08-21T07:11:02;21.30;1.00
29777;DHT22;16677;52.224;7.484;2023-08-21T07:13:34;21.60;1.00
29777;DHT22;16677;52.224;7.484;2023-08-21T07:16:02;21.70;1.00
29777;DHT22;16677;52.224;7.484;2023-08-21T07:18:32;21.80;1.00
29777;DHT22;16677;52.224;7.484;2023-08-21T07:21:03;22.30;99.90
29777;DHT22;16677;52.224;7.484;2023-08-21T07:23:48;22.30;99.90
29777;DHT22;16677;52.224;7.484;2023-08-21T07:26:15;22.60;99.90
29777;DHT22;16677;52.224;7.484;2023-08-21T07:28:43;22.20;99.90
29777;DHT22;16677;52.224;7.484;2023-08-21T07:31:10;22.40;1.00
29777;DHT22;16677;52.224;7.484;2023-08-21T07:33:38;22.80;99.90
29777;DHT22;16677;52.224;7.484;2023-08-21T07:36:09;22.70;99.90
29777;DHT22;16677;52.224;7.484;2023-08-21T07:38:40;22.50;99.90
29777;DHT22;16677;52.224;7.484;2023-08-21T07:41:09;22.50;1.00
29777;DHT22;16677;52.224;7.484;2023-08-21T07:43:41;22.80;1.00
29777;DHT22;16677;52.224;7.484;2023-08-21T07:46:12;22.80;1.00
29777;DHT22;16677;52.224;7.484;2023-08-21T07:48:47;23.10;1.00
29777;DHT22;16677;52.224;7.484;2023-08-21T07:51:14;23.70;99.90
29777;DHT22;16677;52.224;7.484;2023-08-21T07:53:42;23.90;99.90
29777;DHT22;16677;52.224;7.484;2023-08-21T07:56:10;24.10;99.90
29777;DHT22;16677;52.224;7.484;2023-08-21T07:58:39;24.60;99.90
29777;DHT22;16677;52.224;7.484;2023-08-21T08:01:12;24.20;1.00
29777;DHT22;16677;52.224;7.484;2023-08-21T08:03:39;24.40;99.90
29777;DHT22;16677;52.224;7.484;2023-08-21T08:06:07;24.20;99.90
29777;DHT22;16677;52.224;7.484;2023-08-21T08:08:40;24.40;99.90
29777;DHT22;16677;52.224;7.484;2023-08-21T08:11:08;24.20;99.90
29777;DHT22;16677;52.224;7.484;2023-08-21T08:13:38;24.00;99.90
29777;DHT22;16677;52.224;7.484;2023-08-21T08:16:05;24.10;99.90
29777;DHT22;16677;52.224;7.484;2023-08-21T08:18:48;24.30;99.90
29777;DHT22;16677;52.224;7.484;2023-08-21T08:21:15;24.50;99.90
29777;DHT22;16677;52.224;7.484;2023-08-21T08:23:43;24.30;99.90
29777;DHT22;16677;52.224;7.484;2023-08-21T08:26:10;24.20;99.90
29777;DHT22;16677;52.224;7.484;2023-08-21T08:28:38;23.80;99.90
29777;DHT22;16677;52.224;7.484;2023-08-21T08:31:05;23.90;99.90
29777;DHT22;16677;52.224;7.484;2023-08-21T08:33:32;23.90;99.90
29777;DHT22;16677;52.224;7.484;2023-08-21T08:35:59;23.60;99.90
29777;DHT22;16677;52.224;7.484;2023-08-21T08:38:27;23.40;99.90
29777;DHT22;16677;52.224;7.484;2023-08-21T08:40:55;23.60;99.90
29777;DHT22;16677;52.224;7.484;2023-08-21T08:43:25;23.70;99.90
29777;DHT22;16677;52.224;7.484;2023-08-21T08:45:55;23.80;99.90
29777;DHT22;16677;52.224;7.484;2023-08-21T08:48:23;23.60;99.90
29777;DHT22;16677;52.224;7.484;2023-08-21T08:50:52;23.70;99.90
29777;DHT22;16677;52.224;7.484;2023-08-21T08:53:22;23.20;99.90
29777;DHT22;16677;52.224;7.484;2023-08-21T08:55:50;23.00;99.90
29777;DHT22;16677;52.224;7.484;2023-08-21T08:58:17;23.30;99.90
29777;DHT22;16677;52.224;7.484;2023-08-21T09:00:44;23.30;99.90
29777;DHT22;16677;52.224;7.484;2023-08-21T09:03:11;23.30;99.90
29777;DHT22;16677;52.224;7.484;2023-08-21T09:05:43;23.30;99.90
29777;DHT22;16677;52.224;7.484;2023-08-21T09:08:13;23.50;99.90
29777;DHT22;16677;52.224;7.484;2023-08-21T09:10:42;23.50;99.90
29777;DHT22;16677;52.224;7.484;2023-08-21T09:13:15;23.40;1.00
29777;DHT22;16677;52.224;7.484;2023-08-21T09:15:48;23.40;99.90
29777;DHT22;16677;52.224;7.484;2023-08-21T09:18:18;23.60;99.90
29777;DHT22;16677;52.224;7.484;2023-08-21T09:20:45;23.60;99.90
29777;DHT22;16677;52.224;7.484;2023-08-21T09:23:16;23.80;99.90
29777;DHT22;16677;52.224;7.484;2023-08-21T09:25:45;23.70;99.90
29777;DHT22;16677;52.224;7.484;2023-08-21T09:28:18;24.10;99.90
29777;DHT22;16677;52.224;7.484;2023-08-21T09:30:49;24.60;87.40
29777;DHT22;16677;52.224;7.484;2023-08-21T09:33:19;23.80;99.90
29777;DHT22;16677;52.224;7.484;2023-08-21T09:35:47;23.70;99.90
29777;DHT22;16677;52.224;7.484;2023-08-21T09:38:14;24.10;99.90
29777;DHT22;16677;52.224;7.484;2023-08-21T09:40:43;24.30;99.90
29777;DHT22;16677;52.224;7.484;2023-08-21T09:43:13;24.40;99.90
29777;DHT22;16677;52.224;7.484;2023-08-21T09:45:41;24.50;99.90
29777;DHT22;16677;52.224;7.484;2023-08-21T09:48:08;24.80;99.90
29777;DHT22;16677;52.224;7.484;2023-08-21T09:50:35;24.60;99.90
29777;DHT22;16677;52.224;7.484;2023-08-21T09:53:06;25.00;99.90
29777;DHT22;16677;52.224;7.484;2023-08-21T09:55:33;25.20;99.90
29777;DHT22;16677;52.224;7.484;2023-08-21T09:58:03;25.50;99.90
29777;DHT22;16677;52.224;7.484;2023-08-21T10:00:35;25.80;99.90
29777;DHT22;16677;52.224;7.484;2023-08-21T10:03:05;26.00;89.70
29777;DHT22;16677;52.224;7.484;2023-08-21T10:05:35;25.40;84.10
29777;DHT22;16677;52.224;7.484;2023-08-21T10:08:05;25.70;76.20
29777;DHT22;16677;52.224;7.484;2023-08-21T10:10:37;25.50;61.90
29777;DHT22;16677;52.224;7.484;2023-08-21T10:13:05;25.40;88.20
29777;DHT22;16677;52.224;7.484;2023-08-21T10:15:35;25.70;55.90
29777;DHT22;16677;52.224;7.484;2023-08-21T10:18:24;26.10;33.80
29777;DHT22;16677;52.224;7.484;2023-08-21T10:20:56;26.00;4.10
29777;DHT22;16677;52.224;7.484;2023-08-21T10:25:58;25.50;1.00
29777;DHT22;16677;52.224;7.484;2023-08-21T10:28:53;25.60;1.00
29777;DHT22;16677;52.224;7.484;2023-08-21T10:31:42;25.80;1.00
29777;DHT22;16677;52.224;7.484;2023-08-21T10:34:13;26.20;1.00
29777;DHT22;16677;52.224;7.484;2023-08-21T10:39:24;26.00;1.00
29777;DHT22;16677;52.224;7.484;2023-08-21T10:42:03;25.80;1.00
29777;DHT22;16677;52.224;7.484;2023-08-21T10:44:45;25.80;1.00
29777;DHT22;16677;52.224;7.484;2023-08-21T10:47:31;25.60;1.00
29777;DHT22;16677;52.224;7.484;2023-08-21T10:50:07;25.90;1.00
29777;DHT22;16677;52.224;7.484;2023-08-21T10:52:38;26.00;1.00
29777;DHT22;16677;52.224;7.484;2023-08-21T10:55:10;25.80;1.00
29777;DHT22;16677;52.224;7.484;2023-08-21T10:57:38;26.00;1.00
29777;DHT22;16677;52.224;7.484;2023-08-21T11:00:06;26.30;1.00
29777;DHT22;16677;52.224;7.484;2023-08-21T11:02:41;26.50;1.00
29777;DHT22;16677;52.224;7.484;2023-08-21T11:05:13;26.60;1.00
29777;DHT22;16677;52.224;7.484;2023-08-21T11:07:44;26.40;1.00
29777;DHT22;16677;52.224;7.484;2023-08-21T11:10:22;26.40;1.00
29777;DHT22;16677;52.224;7.484;2023-08-21T11:12:54;26.20;1.00
29777;DHT22;16677;52.224;7.484;2023-08-21T11:15:25;26.30;1.00
29777;DHT22;16677;52.224;7.484;2023-08-21T11:17:57;26.40;1.00
29777;DHT22;16677;52.224;7.484;2023-08-21T11:20:34;26.40;1.00
29777;DHT22;16677;52.224;7.484;2023-08-21T11:23:06;26.70;1.00
29777;DHT22;16677;52.224;7.484;2023-08-21T11:25:38;26.90;1.00
29777;DHT22;16677;52.224;7.484;2023-08-21T11:28:06;27.20;1.00
29777;DHT22;16677;52.224;7.484;2023-08-21T11:30:34;27.10;1.00
29777;DHT22;16677;52.224;7.484;2023-08-21T11:33:10;26.90;1.00
29777;DHT22;16677;52.224;7.484;2023-08-21T11:35:38;27.20;1.00
29777;DHT22;16677;52.224;7.484;2023-08-21T11:38:06;27.40;1.00
29777;DHT22;16677;52.224;7.484;2023-08-21T11:40:40;27.30;1.00
29777;DHT22;16677;52.224;7.484;2023-08-21T11:43:07;27.90;1.00
29777;DHT22;16677;52.224;7.484;2023-08-21T11:45:38;27.30;1.00
29777;DHT22;16677;52.224;7.484;2023-08-21T11:48:24;27.10;1.00
29777;DHT22;16677;52.224;7.484;2023-08-21T11:50:52;27.10;1.00
29777;DHT22;16677;52.224;7.484;2023-08-21T11:53:32;27.20;1.00
29777;DHT22;16677;52.224;7.484;2023-08-21T11:56:09;27.20;1.00
29777;DHT22;16677;52.224;7.484;2023-08-21T11:58:40;27.30;1.00
29777;DHT22;16677;52.224;7.484;2023-08-21T12:01:07;27.40;1.00
29777;DHT22;16677;52.224;7.484;2023-08-21T12:03:38;27.50;1.00
29777;DHT22;16677;52.224;7.484;2023-08-21T12:06:10;27.70;1.00
29777;DHT22;16677;52.224;7.484;2023-08-21T12:08:39;27.70;1.00
29777;DHT22;16677;52.224;7.484;2023-08-21T12:11:07;27.60;1.00
29777;DHT22;16677;52.224;7.484;2023-08-21T12:13:38;27.40;1.00
29777;DHT22;16677;52.224;7.484;2023-08-21T12:16:05;27.60;1.00
29777;DHT22;16677;52.224;7.484;2023-08-21T12:18:35;27.20;1.00
29777;DHT22;16677;52.224;7.484;2023-08-21T12:21:02;27.40;1.00
29777;DHT22;16677;52.224;7.484;2023-08-21T12:23:29;27.70;1.00
29777;DHT22;16677;52.224;7.484;2023-08-21T12:25:56;27.70;1.00
29777;DHT22;16677;52.224;7.484;2023-08-21T12:28:23;28.10;1.00
29777;DHT22;16677;52.224;7.484;2023-08-21T12:30:51;28.10;1.00
29777;DHT22;16677;52.224;7.484;2023-08-21T12:33:18;28.20;1.00
29777;DHT22;16677;52.224;7.484;2023-08-21T12:35:50;27.60;1.00
29777;DHT22;16677;52.224;7.484;2023-08-21T12:38:17;26.90;1.00
29777;DHT22;16677;52.224;7.484;2023-08-21T12:40:45;26.40;1.00
29777;DHT22;16677;52.224;7.484;2023-08-21T12:43:12;26.00;1.00
29777;DHT22;16677;52.224;7.484;2023-08-21T12:45:39;26.00;1.00
29777;DHT22;16677;52.224;7.484;2023-08-21T12:48:06;26.00;1.00
29777;DHT22;16677;52.224;7.484;2023-08-21T12:50:33;26.10;1.00
29777;DHT22;16677;52.224;7.484;2023-08-21T12:53:00;26.10;1.00
29777;DHT22;16677;52.224;7.484;2023-08-21T12:55:28;26.30;1.00
29777;DHT22;16677;52.224;7.484;2023-08-21T12:57:56;25.90;1.00
29777;DHT22;16677;52.224;7.484;2023-08-21T13:00:26;26.10;1.00
29777;DHT22;16677;52.224;7.484;2023-08-21T13:02:53;26.30;1.00
29777;DHT22;16677;52.224;7.484;2023-08-21T13:05:21;26.30;1.00
29777;DHT22;16677;52.224;7.484;2023-08-21T13:07:48;26.50;1.00
29777;DHT22;16677;52.224;7.484;2023-08-21T13:10:15;26.70;1.00
29777;DHT22;16677;52.224;7.484;2023-08-21T13:12:43;26.40;1.00
29777;DHT22;16677;52.224;7.484;2023-08-21T13:15:10;26.70;1.00
29777;DHT22;16677;52.224;7.484;2023-08-21T13:17:37;26.50;1.00
29777;DHT22;16677;52.224;7.484;2023-08-21T13:20:05;26.20;1.00
29777;DHT22;16677;52.224;7.484;2023-08-21T13:22:46;26.10;1.00
29777;DHT22;16677;52.224;7.484;2023-08-21T13:25:15;25.90;1.00
29777;DHT22;16677;52.224;7.484;2023-08-21T13:27:43;26.00;1.00
29777;DHT22;16677;52.224;7.484;2023-08-21T13:30:11;25.80;1.00
29777;DHT22;16677;52.224;7.484;2023-08-21T13:32:39;26.00;1.00
29777;DHT22;16677;52.224;7.484;2023-08-21T13:35:07;26.20;1.00
29777;DHT22;16677;52.224;7.484;2023-08-21T13:37:40;25.90;1.00
29777;DHT22;16677;52.224;7.484;2023-08-21T13:40:07;25.90;1.00
29777;DHT22;16677;52.224;7.484;2023-08-21T13:42:44;26.50;1.00
29777;DHT22;16677;52.224;7.484;2023-08-21T13:45:16;26.60;1.00
29777;DHT22;16677;52.224;7.484;2023-08-21T13:47:47;27.00;1.00
29777;DHT22;16677;52.224;7.484;2023-08-21T13:50:18;27.50;1.00
29777;DHT22;16677;52.224;7.484;2023-08-21T13:52:47;27.00;1.00
29777;DHT22;16677;52.224;7.484;2023-08-21T13:55:20;27.30;1.00
29777;DHT22;16677;52.224;7.484;2023-08-21T13:57:48;26.90;1.00
29777;DHT22;16677;52.224;7.484;2023-08-21T14:00:16;26.90;1.00
29777;DHT22;16677;52.224;7.484;2023-08-21T14:05:13;26.80;1.00
29777;DHT22;16677;52.224;7.484;2023-08-21T14:07:40;27.00;1.00
29777;DHT22;16677;52.224;7.484;2023-08-21T14:10:08;27.60;1.00
29777;DHT22;16677;52.224;7.484;2023-08-21T14:12:36;27.60;1.00
29777;DHT22;16677;52.224;7.484;2023-08-21T14:15:08;27.20;1.00
29777;DHT22;16677;52.224;7.484;2023-08-21T14:17:35;27.00;1.00
29777;DHT22;16677;52.224;7.484;2023-08-21T14:20:03;26.50;1.00
29777;DHT22;16677;52.224;7.484;2023-08-21T14:22:37;26.70;1.00
29777;DHT22;16677;52.224;7.484;2023-08-21T14:25:04;26.50;1.00
29777;DHT22;16677;52.224;7.484;2023-08-21T14:27:34;26.80;1.00
29777;DHT22;16677;52.224;7.484;2023-08-21T14:30:04;27.00;1.00
29777;DHT22;16677;52.224;7.484;2023-08-21T14:32:32;26.90;1.00
29777;DHT22;16677;52.224;7.484;2023-08-21T14:35:04;27.00;1.00
29777;DHT22;16677;52.224;7.484;2023-08-21T14:37:37;27.00;1.00
29777;DHT22;16677;52.224;7.484;2023-08-21T14:40:05;27.60;1.00
29777;DHT22;16677;52.224;7.484;2023-08-21T14:42:39;26.70;1.00
29777;DHT22;16677;52.224;7.484;2023-08-21T14:45:06;26.70;1.00
29777;DHT22;16677;52.224;7.484;2023-08-21T14:47:34;26.10;1.00
29777;DHT22;16677;52.224;7.484;2023-08-21T14:50:03;25.40;1.00
29777;DHT22;16677;52.224;7.484;2023-08-21T14:52:30;25.50;1.00
29777;DHT22;16677;52.224;7.484;2023-08-21T14:55:00;25.50;1.00
29777;DHT22;16677;52.224;7.484;2023-08-21T14:57:27;25.70;1.00
29777;DHT22;16677;52.224;7.484;2023-08-21T14:59:55;25.70;1.00
29777;DHT22;16677;52.224;7.484;2023-08-21T15:02:23;25.70;1.00
29777;DHT22;16677;52.224;7.484;2023-08-21T15:04:53;25.50;1.00
29777;DHT22;16677;52.224;7.484;2023-08-21T15:07:20;25.90;1.00
29777;DHT22;16677;52.224;7.484;2023-08-21T15:09:48;26.40;1.00
29777;DHT22;16677;52.224;7.484;2023-08-21T15:12:15;26.70;1.00
29777;DHT22;16677;52.224;7.484;2023-08-21T15:14:42;26.80;1.00
29777;DHT22;16677;52.224;7.484;2023-08-21T15:17:09;27.00;1.00
29777;DHT22;16677;52.224;7.484;2023-08-21T15:19:48;27.00;1.00
29777;DHT22;16677;52.224;7.484;2023-08-21T15:22:16;27.50;1.00
29777;DHT22;16677;52.224;7.484;2023-08-21T15:24:43;27.80;1.00
29777;DHT22;16677;52.224;7.484;2023-08-21T15:27:10;27.60;1.00
29777;DHT22;16677;52.224;7.484;2023-08-21T15:29:40;27.80;1.00
29777;DHT22;16677;52.224;7.484;2023-08-21T15:32:08;28.00;1.00
29777;DHT22;16677;52.224;7.484;2023-08-21T15:34:35;27.40;1.00
29777;DHT22;16677;52.224;7.484;2023-08-21T15:37:02;26.70;1.00
29777;DHT22;16677;52.224;7.484;2023-08-21T15:39:32;27.40;1.00
29777;DHT22;16677;52.224;7.484;2023-08-21T15:41:59;27.30;1.00
29777;DHT22;16677;52.224;7.484;2023-08-21T15:44:27;27.40;1.00
29777;DHT22;16677;52.224;7.484;2023-08-21T15:46:54;26.90;1.00
29777;DHT22;16677;52.224;7.484;2023-08-21T15:49:41;27.60;1.00
29777;DHT22;16677;52.224;7.484;2023-08-21T15:52:08;27.20;1.00
29777;DHT22;16677;52.224;7.484;2023-08-21T15:54:35;27.00;1.00
29777;DHT22;16677;52.224;7.484;2023-08-21T15:57:07;27.50;1.00
29777;DHT22;16677;52.224;7.484;2023-08-21T15:59:34;28.10;1.00
29777;DHT22;16677;52.224;7.484;2023-08-21T16:02:02;27.80;1.00
29777;DHT22;16677;52.224;7.484;2023-08-21T16:04:30;27.70;1.00
29777;DHT22;16677;52.224;7.484;2023-08-21T16:06:57;27.60;1.00
29777;DHT22;16677;52.224;7.484;2023-08-21T16:09:24;27.40;1.00
29777;DHT22;16677;52.224;7.484;2023-08-21T16:11:51;27.50;1.00
29777;DHT22;16677;52.224;7.484;2023-08-21T16:14:21;28.20;1.00
29777;DHT22;16677;52.224;7.484;2023-08-21T16:16:48;28.40;1.00
29777;DHT22;16677;52.224;7.484;2023-08-21T16:19:17;28.50;1.00